createdAt,value
2023-02-27T00:00:59.547Z,100805.05
2023-02-27T00:03:28.886Z,100809.31
2023-02-27T00:05:57.249Z,100806.44
2023-02-27T00:08:25.745Z,100808.65
2023-02-27T00:10:54.079Z,100808.79
2023-02-27T00:13:22.305Z,100811.80
2023-02-27T00:15:51.274Z,100814.44
2023-02-27T00:18:19.358Z,100820.06
2023-02-27T00:20:48.700Z,100820.42
2023-02-27T00:23:16.787Z,100830.50
2023-02-27T00:25:44.993Z,100826.91
2023-02-27T00:28:13.140Z,100827.18
2023-02-27T00:30:42.014Z,100827.31
2023-02-27T00:33:10.915Z,100826.27
2023-02-27T00:35:38.983Z,100827.97
2023-02-27T00:38:06.946Z,100827.30
2023-02-27T00:40:37.792Z,100826.64
2023-02-27T00:43:05.856Z,100835.17
2023-02-27T00:45:34.060Z,100835.97
2023-02-27T00:48:02.308Z,100838.34
2023-02-27T00:50:30.582Z,100843.49
2023-02-27T00:52:58.563Z,100845.38
2023-02-27T00:55:27.469Z,100846.09
2023-02-27T00:57:55.817Z,100846.61
2023-02-27T01:00:24.710Z,100846.29
2023-02-27T01:02:52.862Z,100845.80
2023-02-27T01:05:21.525Z,100843.58
2023-02-27T01:07:49.542Z,100843.77
2023-02-27T01:10:17.610Z,100846.98
2023-02-27T01:12:45.682Z,100852.40
2023-02-27T01:15:13.958Z,100846.55
2023-02-27T01:17:43.360Z,100842.60
2023-02-27T01:20:12.907Z,100837.24
2023-02-27T01:22:41.449Z,100841.96
2023-02-27T01:25:10.270Z,100843.49
2023-02-27T01:27:40.967Z,100847.41
2023-02-27T01:30:11.719Z,100844.17
2023-02-27T01:32:39.807Z,100845.05
2023-02-27T01:35:08.578Z,100851.21
2023-02-27T01:37:36.635Z,100856.70
2023-02-27T01:40:07.298Z,100859.98
2023-02-27T01:42:35.652Z,100860.02
2023-02-27T01:45:13.079Z,100859.85
2023-02-27T01:47:55.951Z,100859.35
2023-02-27T01:50:24.877Z,100861.21
2023-02-27T01:52:58.833Z,100859.66
2023-02-27T01:55:30.272Z,100864.73
2023-02-27T01:57:58.784Z,100860.88
2023-02-27T02:00:27.422Z,100864.62
2023-02-27T02:03:04.930Z,100861.04
2023-02-27T02:05:33.440Z,100864.11
2023-02-27T02:08:02.586Z,100867.67
2023-02-27T02:10:32.400Z,100868.50
2023-02-27T02:13:00.929Z,100872.92
2023-02-27T02:15:36.600Z,100866.81
2023-02-27T02:18:21.955Z,100862.42
2023-02-27T02:21:22.180Z,100867.40
2023-02-27T02:24:28.242Z,100870.80
2023-02-27T02:27:08.398Z,100874.35
2023-02-27T02:29:42.608Z,100878.27
2023-02-27T02:32:25.971Z,100876.93
2023-02-27T02:35:27.103Z,100883.77
2023-02-27T02:38:29.295Z,100882.55
2023-02-27T02:41:06.950Z,100893.96
2023-02-27T02:43:48.513Z,100893.60
2023-02-27T02:46:43.747Z,100896.80
2023-02-27T02:49:36.303Z,100907.52
2023-02-27T02:52:16.971Z,100900.86
2023-02-27T02:54:58.456Z,100908.37
2023-02-27T02:57:36.395Z,100909.24
2023-02-27T03:00:14.962Z,100916.96
2023-02-27T03:02:49.156Z,100920.40
2023-02-27T03:05:53.497Z,100923.52
2023-02-27T03:08:26.970Z,100928.42
2023-02-27T03:11:00.765Z,100928.62
2023-02-27T03:13:51.546Z,100932.02
2023-02-27T03:16:43.434Z,100932.88
2023-02-27T03:19:17.869Z,100931.87
2023-02-27T03:21:54.469Z,100939.56
2023-02-27T03:24:32.267Z,100941.80
2023-02-27T03:27:03.195Z,100941.49
2023-02-27T03:29:38.400Z,100943.84
2023-02-27T03:32:18.938Z,100945.54
2023-02-27T03:34:48.364Z,100946.69
2023-02-27T03:37:55.689Z,100949.93
2023-02-27T03:40:40.210Z,100949.02
2023-02-27T03:43:21.595Z,100950.87
2023-02-27T03:46:07.923Z,100953.91
2023-02-27T03:48:36.580Z,100954.22
2023-02-27T03:51:04.748Z,100958.33
2023-02-27T03:53:38.142Z,100958.02
2023-02-27T03:56:09.201Z,100961.45
2023-02-27T03:58:37.461Z,100966.06
2023-02-27T04:01:06.149Z,100969.64
2023-02-27T04:03:41.207Z,100970.52
2023-02-27T04:06:29.017Z,100975.59
2023-02-27T04:09:20.124Z,100980.48
2023-02-27T04:12:11.068Z,100977.58
2023-02-27T04:15:07.269Z,100975.56
2023-02-27T04:17:44.547Z,100975.92
2023-02-27T04:20:44.819Z,100974.02
2023-02-27T04:23:28.251Z,100975.19
2023-02-27T04:26:08.300Z,100977.27
2023-02-27T04:28:39.305Z,100981.48
2023-02-27T04:31:24.997Z,100985.32
2023-02-27T04:34:18.145Z,100984.91
2023-02-27T04:37:01.516Z,100991.48
2023-02-27T04:39:36.652Z,100989.84
2023-02-27T04:42:11.363Z,100993.65
2023-02-27T04:44:41.378Z,100996.48
2023-02-27T04:47:12.954Z,100999.48
2023-02-27T04:49:48.460Z,101004.21
2023-02-27T04:52:21.594Z,101005.06
2023-02-27T04:54:56.431Z,101007.96
2023-02-27T04:57:30.115Z,101008.84
2023-02-27T05:00:01.626Z,101008.51
2023-02-27T05:02:36.187Z,101008.52
2023-02-27T05:05:10.817Z,101014.66
2023-02-27T05:07:49.438Z,101011.26
2023-02-27T05:10:32.681Z,101017.54
2023-02-27T05:13:11.179Z,101016.70
2023-02-27T05:15:53.180Z,101017.88
2023-02-27T05:18:23.067Z,101018.77
2023-02-27T05:21:06.592Z,101023.73
2023-02-27T05:23:49.707Z,101025.02
2023-02-27T05:26:25.171Z,101027.73
2023-02-27T05:29:06.564Z,101033.85
2023-02-27T05:31:52.457Z,101035.55
2023-02-27T05:34:23.666Z,101039.30
2023-02-27T05:37:05.048Z,101045.08
2023-02-27T05:39:37.520Z,101046.57
2023-02-27T05:42:11.938Z,101048.45
2023-02-27T05:44:47.616Z,101047.39
2023-02-27T05:47:23.746Z,101048.86
2023-02-27T05:49:56.732Z,101050.97
2023-02-27T05:52:26.848Z,101058.65
2023-02-27T05:55:18.821Z,101066.35
2023-02-27T05:57:55.045Z,101071.88
2023-02-27T06:00:27.032Z,101077.43
2023-02-27T06:02:55.298Z,101081.63
2023-02-27T06:05:25.710Z,101078.83
2023-02-27T06:07:53.693Z,101079.73
2023-02-27T06:10:22.573Z,101081.16
2023-02-27T06:12:50.542Z,101085.65
2023-02-27T06:15:19.745Z,101084.73
2023-02-27T06:17:47.717Z,101086.56
2023-02-27T06:20:15.808Z,101092.24
2023-02-27T06:22:44.055Z,101094.14
2023-02-27T06:25:12.528Z,101102.10
2023-02-27T06:27:40.515Z,101099.48
2023-02-27T06:30:09.497Z,101102.63
2023-02-27T06:32:37.393Z,101102.57
2023-02-27T06:35:06.604Z,101101.77
2023-02-27T06:37:34.832Z,101101.97
2023-02-27T06:40:06.099Z,101105.25
2023-02-27T06:42:34.041Z,101110.73
2023-02-27T06:45:02.114Z,101109.19
2023-02-27T06:47:30.086Z,101113.67
2023-02-27T06:49:58.366Z,101121.87
2023-02-27T06:52:26.756Z,101123.15
2023-02-27T06:54:54.909Z,101127.20
2023-02-27T06:57:22.915Z,101127.88
2023-02-27T06:59:50.950Z,101127.71
2023-02-27T07:02:19.031Z,101131.52
2023-02-27T07:04:47.438Z,101132.40
2023-02-27T07:07:34.630Z,101134.95
2023-02-27T07:10:05.504Z,101133.27
2023-02-27T07:12:33.842Z,101137.81
2023-02-27T07:15:01.823Z,101139.45
2023-02-27T07:17:30.287Z,101136.69
2023-02-27T07:19:58.254Z,101139.27
2023-02-27T07:22:26.252Z,101139.34
2023-02-27T07:24:54.186Z,101145.22
2023-02-27T07:27:22.159Z,101149.77
2023-02-27T07:29:50.244Z,101153.45
2023-02-27T07:32:18.354Z,101153.18
2023-02-27T07:34:46.345Z,101151.82
2023-02-27T07:37:14.339Z,101157.05
2023-02-27T07:39:42.371Z,101163.83
2023-02-27T07:42:10.685Z,101167.52
2023-02-27T07:44:40.910Z,101166.35
2023-02-27T07:47:09.083Z,101166.17
2023-02-27T07:49:37.166Z,101164.25
2023-02-27T07:52:05.263Z,101165.00
2023-02-27T07:54:35.671Z,101163.05
2023-02-27T07:57:05.472Z,101165.14
2023-02-27T07:59:33.461Z,101163.30
2023-02-27T08:02:01.399Z,101162.35
2023-02-27T08:04:29.483Z,101169.60
2023-02-27T08:06:58.156Z,101171.80
2023-02-27T08:09:26.228Z,101171.55
2023-02-27T08:11:54.216Z,101173.73
2023-02-27T08:14:22.270Z,101180.22
2023-02-27T08:16:50.281Z,101174.80
2023-02-27T08:19:18.311Z,101177.65
2023-02-27T08:21:46.379Z,101184.57
2023-02-27T08:24:14.359Z,101188.73
2023-02-27T08:26:42.335Z,101187.13
2023-02-27T08:29:10.416Z,101188.80
2023-02-27T08:31:38.379Z,101192.16
2023-02-27T08:34:10.811Z,101198.22
2023-02-27T08:36:39.747Z,101200.05
2023-02-27T08:39:08.303Z,101206.13
2023-02-27T08:41:37.189Z,101208.17
2023-02-27T08:44:05.571Z,101213.67
2023-02-27T08:46:33.656Z,101204.09
2023-02-27T08:49:01.626Z,101209.02
2023-02-27T08:51:29.892Z,101210.46
2023-02-27T08:53:59.285Z,101217.13
2023-02-27T08:56:28.611Z,101218.36
2023-02-27T08:58:56.956Z,101216.13
2023-02-27T09:01:28.715Z,101223.34
2023-02-27T09:03:57.728Z,101220.97
2023-02-27T09:06:26.494Z,101227.52
2023-02-27T09:08:55.296Z,101225.77
2023-02-27T09:11:23.364Z,101230.51
2023-02-27T09:13:52.996Z,101228.61
2023-02-27T09:16:22.505Z,101226.90
2023-02-27T09:18:51.199Z,101226.94
2023-02-27T09:21:19.330Z,101236.59
2023-02-27T09:23:47.517Z,101240.97
2023-02-27T09:26:17.259Z,101236.23
2023-02-27T09:28:45.184Z,101240.67
2023-02-27T09:31:13.617Z,101247.73
2023-02-27T09:33:41.647Z,101250.87
2023-02-27T09:36:09.688Z,101252.52
2023-02-27T09:38:40.987Z,101252.25
2023-02-27T09:41:32.575Z,101253.05
2023-02-27T09:44:01.904Z,101259.25
2023-02-27T09:46:30.150Z,101261.89
2023-02-27T09:49:01.132Z,101261.16
2023-02-27T09:51:29.960Z,101270.20
2023-02-27T09:54:01.626Z,101274.50
2023-02-27T09:56:35.717Z,101277.92
2023-02-27T09:59:19.884Z,101278.10
2023-02-27T10:02:08.666Z,101281.30
2023-02-27T10:05:10.815Z,101277.88
2023-02-27T10:07:52.412Z,101285.33
2023-02-27T10:10:37.678Z,101282.98
2023-02-27T10:13:39.691Z,101275.30
2023-02-27T10:16:12.887Z,101272.09
2023-02-27T10:18:55.689Z,101281.40
2023-02-27T10:21:52.194Z,101280.95
2023-02-27T10:24:21.832Z,101280.48
2023-02-27T10:26:55.217Z,101278.64
2023-02-27T10:29:42.748Z,101286.11
2023-02-27T10:32:22.636Z,101287.98
2023-02-27T10:35:06.631Z,101288.45
2023-02-27T10:37:37.247Z,101288.36
2023-02-27T10:40:07.075Z,101288.09
2023-02-27T10:42:41.532Z,101296.98
2023-02-27T10:45:15.892Z,101299.76
2023-02-27T10:47:44.685Z,101297.58
2023-02-27T10:50:23.710Z,101302.23
2023-02-27T10:52:53.783Z,101308.89
2023-02-27T10:55:34.340Z,101305.68
2023-02-27T10:58:05.143Z,101305.98
2023-02-27T11:00:53.486Z,101305.59
2023-02-27T11:03:26.355Z,101308.50
2023-02-27T11:05:57.335Z,101306.03
2023-02-27T11:08:28.654Z,101308.93
2023-02-27T11:11:12.096Z,101310.69
2023-02-27T11:13:42.686Z,101308.92
2023-02-27T11:16:17.383Z,101309.60
2023-02-27T11:18:47.778Z,101301.61
2023-02-27T11:21:26.645Z,101298.09
2023-02-27T11:23:59.679Z,101293.98
2023-02-27T11:26:34.709Z,101303.36
2023-02-27T11:29:15.146Z,101301.11
2023-02-27T11:31:54.168Z,101307.05
2023-02-27T11:34:26.897Z,101312.43
2023-02-27T11:37:02.006Z,101316.05
2023-02-27T11:39:54.609Z,101313.14
2023-02-27T11:42:31.809Z,101314.06
2023-02-27T11:46:13.374Z,101310.61
2023-02-27T11:48:40.072Z,101307.84
2023-02-27T11:51:11.112Z,101303.21
2023-02-27T11:54:07.356Z,101307.42
2023-02-27T11:56:53.448Z,101312.04
2023-02-27T11:59:53.662Z,101310.28
2023-02-27T12:02:39.510Z,101318.86
2023-02-27T12:05:26.573Z,101318.27
2023-02-27T12:08:05.843Z,101322.59
2023-02-27T12:11:07.806Z,101328.47
2023-02-27T12:13:47.115Z,101326.39
2023-02-27T12:16:27.445Z,101329.73
2023-02-27T12:19:11.098Z,101332.39
2023-02-27T12:21:49.135Z,101329.94
2023-02-27T12:24:23.367Z,101333.52
2023-02-27T12:27:02.049Z,101334.05
2023-02-27T12:29:36.073Z,101337.60
2023-02-27T12:32:23.553Z,101338.15
2023-02-27T12:35:01.499Z,101342.50
2023-02-27T12:37:33.711Z,101343.95
2023-02-27T12:40:09.255Z,101342.66
2023-02-27T12:42:55.892Z,101348.39
2023-02-27T12:45:54.061Z,101347.39
2023-02-27T12:49:04.331Z,101349.31
2023-02-27T12:51:43.356Z,101357.92
2023-02-27T12:54:30.394Z,101358.70
2023-02-27T12:57:24.651Z,101359.52
2023-02-27T13:00:12.736Z,101362.91
2023-02-27T13:02:50.596Z,101357.58
2023-02-27T13:05:32.355Z,101350.92
2023-02-27T13:08:28.212Z,101355.98
2023-02-27T13:11:17.603Z,101360.06
2023-02-27T13:13:52.026Z,101362.38
2023-02-27T13:16:20.015Z,101362.55
2023-02-27T13:18:59.005Z,101366.20
2023-02-27T13:22:05.012Z,101368.96
2023-02-27T13:24:34.577Z,101370.29
2023-02-27T13:27:04.788Z,101363.39
2023-02-27T13:29:45.568Z,101369.02
2023-02-27T13:32:16.418Z,101376.88
2023-02-27T13:34:54.425Z,101379.98
2023-02-27T13:37:22.401Z,101377.76
2023-02-27T13:40:00.197Z,101381.60
2023-02-27T13:42:28.337Z,101383.52
2023-02-27T13:45:18.014Z,101386.79
2023-02-27T13:47:50.224Z,101385.46
2023-02-27T13:50:18.158Z,101384.86
2023-02-27T13:52:47.088Z,101383.92
2023-02-27T13:55:35.514Z,101386.61
2023-02-27T13:58:05.823Z,101386.87
2023-02-27T14:00:37.896Z,101387.27
2023-02-27T14:03:18.624Z,101386.96
2023-02-27T14:05:49.298Z,101388.34
2023-02-27T14:08:55.701Z,101390.69
2023-02-27T14:11:39.849Z,101393.73
2023-02-27T14:14:29.601Z,101397.04
2023-02-27T14:16:58.996Z,101400.13
2023-02-27T14:19:29.519Z,101401.52
2023-02-27T14:22:38.946Z,101404.38
2023-02-27T14:25:22.321Z,101406.83
2023-02-27T14:27:56.843Z,101408.81
2023-02-27T14:30:41.298Z,101411.59
2023-02-27T14:33:40.340Z,101414.06
2023-02-27T14:36:19.424Z,101409.11
2023-02-27T14:38:49.418Z,101412.29
2023-02-27T14:41:39.622Z,101412.16
2023-02-27T14:44:22.713Z,101415.31
2023-02-27T14:46:54.400Z,101413.10
2023-02-27T14:49:29.355Z,101417.77
2023-02-27T14:51:57.578Z,101418.98
2023-02-27T14:54:27.329Z,101415.90
2023-02-27T14:57:07.127Z,101420.74
2023-02-27T14:59:44.234Z,101424.20
2023-02-27T15:02:24.574Z,101424.92
2023-02-27T15:05:25.418Z,101428.20
2023-02-27T15:07:54.197Z,101432.34
2023-02-27T15:10:33.646Z,101432.30
2023-02-27T15:13:02.834Z,101436.05
2023-02-27T15:15:32.227Z,101435.38
2023-02-27T15:18:01.158Z,101441.21
2023-02-27T15:20:34.633Z,101441.13
2023-02-27T15:23:28.706Z,101442.09
2023-02-27T15:25:59.234Z,101445.16
2023-02-27T15:28:32.349Z,101445.20
2023-02-27T15:31:00.650Z,101447.19
2023-02-27T15:33:31.947Z,101453.61
2023-02-27T15:36:01.679Z,101458.48
2023-02-27T15:38:31.058Z,101458.13
2023-02-27T15:41:00.666Z,101464.16
2023-02-27T15:43:30.087Z,101468.41
2023-02-27T15:45:58.580Z,101471.61
2023-02-27T15:48:27.130Z,101471.59
2023-02-27T15:51:01.174Z,101477.48
2023-02-27T15:53:30.965Z,101480.09
2023-02-27T15:56:04.415Z,101484.73
2023-02-27T15:58:36.855Z,101493.79
2023-02-27T16:01:19.789Z,101499.54
2023-02-27T16:03:50.675Z,101503.59
2023-02-27T16:06:23.455Z,101505.66
2023-02-27T16:08:52.860Z,101509.46
2023-02-27T16:11:25.229Z,101517.10
2023-02-27T16:13:54.775Z,101526.25
2023-02-27T16:16:36.432Z,101527.27
2023-02-27T16:19:27.065Z,101530.74
2023-02-27T16:22:19.146Z,101536.83
2023-02-27T16:24:47.949Z,101538.73
2023-02-27T16:27:28.714Z,101538.89
2023-02-27T16:30:03.047Z,101543.11
2023-02-27T16:32:39.213Z,101551.19
2023-02-27T16:35:16.904Z,101550.02
2023-02-27T16:37:46.187Z,101557.30
2023-02-27T16:40:23.593Z,101554.30
2023-02-27T16:42:52.826Z,101554.86
2023-02-27T16:45:23.521Z,101560.52
2023-02-27T16:47:54.188Z,101559.16
2023-02-27T16:50:30.901Z,101559.17
2023-02-27T16:52:58.885Z,101565.34
2023-02-27T16:55:30.180Z,101570.23
2023-02-27T16:57:59.225Z,101575.32
2023-02-27T17:00:27.446Z,101579.05
2023-02-27T17:02:55.385Z,101583.18
2023-02-27T17:05:24.408Z,101590.57
2023-02-27T17:07:52.443Z,101593.37
2023-02-27T17:10:24.727Z,101595.21
2023-02-27T17:12:53.508Z,101593.31
2023-02-27T17:15:22.283Z,101596.52
2023-02-27T17:17:50.296Z,101598.11
2023-02-27T17:20:18.229Z,101601.14
2023-02-27T17:22:46.318Z,101601.59
2023-02-27T17:25:15.303Z,101602.63
2023-02-27T17:27:44.370Z,101602.83
2023-02-27T17:30:14.635Z,101606.05
2023-02-27T17:32:42.775Z,101612.50
2023-02-27T17:35:11.458Z,101615.70
2023-02-27T17:37:39.529Z,101619.31
2023-02-27T17:40:08.507Z,101622.02
2023-02-27T17:42:37.514Z,101627.34
2023-02-27T17:45:08.172Z,101628.24
2023-02-27T17:47:36.372Z,101630.39
2023-02-27T17:50:05.425Z,101632.46
2023-02-27T17:52:36.796Z,101629.08
2023-02-27T17:55:06.543Z,101628.92
2023-02-27T17:57:39.472Z,101634.57
2023-02-27T18:00:09.505Z,101632.21
2023-02-27T18:02:37.570Z,101631.02
2023-02-27T18:05:06.941Z,101630.73
2023-02-27T18:07:35.117Z,101629.76
2023-02-27T18:10:05.797Z,101632.02
2023-02-27T18:12:34.854Z,101635.79
2023-02-27T18:15:04.492Z,101639.05
2023-02-27T18:17:33.243Z,101639.59
2023-02-27T18:20:01.469Z,101641.17
2023-02-27T18:22:30.305Z,101642.82
2023-02-27T18:24:58.879Z,101645.50
2023-02-27T18:27:28.236Z,101647.70
2023-02-27T18:29:57.898Z,101649.67
2023-02-27T18:32:26.070Z,101648.14
2023-02-27T18:34:54.401Z,101651.71
2023-02-27T18:37:22.410Z,101653.02
2023-02-27T18:39:50.485Z,101649.54
2023-02-27T18:42:18.557Z,101650.67
2023-02-27T18:44:47.882Z,101655.52
2023-02-27T18:47:15.923Z,101655.92
2023-02-27T18:49:44.319Z,101657.19
2023-02-27T18:52:12.479Z,101657.68
2023-02-27T18:54:42.602Z,101658.65
2023-02-27T18:57:11.302Z,101662.02
2023-02-27T18:59:41.456Z,101662.83
2023-02-27T19:02:15.592Z,101661.66
2023-02-27T19:04:43.819Z,101665.02
2023-02-27T19:07:12.065Z,101664.58
2023-02-27T19:09:40.544Z,101660.88
2023-02-27T19:12:11.037Z,101665.55
2023-02-27T19:14:40.068Z,101660.29
2023-02-27T19:17:09.067Z,101667.98
2023-02-27T19:19:38.095Z,101662.89
2023-02-27T19:22:06.172Z,101664.25
2023-02-27T19:24:34.320Z,101665.70
2023-02-27T19:27:02.472Z,101665.13
2023-02-27T19:29:30.793Z,101667.11
2023-02-27T19:31:58.839Z,101670.30
2023-02-27T19:34:26.789Z,101669.92
2023-02-27T19:36:55.164Z,101674.22
2023-02-27T19:39:23.364Z,101672.83
2023-02-27T19:41:51.474Z,101677.36
2023-02-27T19:44:19.480Z,101680.92
2023-02-27T19:46:51.684Z,101683.64
2023-02-27T19:49:20.259Z,101686.83
2023-02-27T19:51:48.199Z,101681.83
2023-02-27T19:54:17.605Z,101688.52
2023-02-27T19:56:45.821Z,101692.98
2023-02-27T19:59:13.854Z,101693.38
2023-02-27T20:01:42.328Z,101691.04
2023-02-27T20:04:11.593Z,101693.94
2023-02-27T20:06:43.312Z,101693.44
2023-02-27T20:09:14.845Z,101691.79
2023-02-27T20:11:44.649Z,101695.53
2023-02-27T20:14:15.294Z,101696.34
2023-02-27T20:16:44.713Z,101696.83
2023-02-27T20:19:16.644Z,101698.22
2023-02-27T20:21:45.732Z,101698.14
2023-02-27T20:24:14.918Z,101692.94
2023-02-27T20:26:46.296Z,101698.13
2023-02-27T20:29:21.417Z,101695.80
2023-02-27T20:31:51.602Z,101703.66
2023-02-27T20:34:26.411Z,101700.44
2023-02-27T20:36:56.274Z,101698.77
2023-02-27T20:39:25.502Z,101703.42
2023-02-27T20:41:53.563Z,101709.11
2023-02-27T20:44:21.721Z,101714.55
2023-02-27T20:46:49.890Z,101712.14
2023-02-27T20:49:18.600Z,101714.36
2023-02-27T20:51:46.618Z,101717.05
2023-02-27T20:54:20.256Z,101717.82
2023-02-27T20:56:54.509Z,101717.96
2023-02-27T20:59:25.357Z,101718.15
2023-02-27T21:01:54.773Z,101719.28
2023-02-27T21:04:47.653Z,101716.27
2023-02-27T21:07:21.364Z,101714.17
2023-02-27T21:09:51.084Z,101713.52
2023-02-27T21:12:19.246Z,101714.42
2023-02-27T21:14:49.517Z,101720.38
2023-02-27T21:17:17.552Z,101721.45
2023-02-27T21:19:45.923Z,101722.61
2023-02-27T21:22:14.548Z,101718.30
2023-02-27T21:24:42.886Z,101721.52
2023-02-27T21:27:10.846Z,101724.27
2023-02-27T21:29:39.339Z,101723.41
2023-02-27T21:32:07.940Z,101724.20
2023-02-27T21:34:36.505Z,101728.88
2023-02-27T21:37:06.457Z,101733.88
2023-02-27T21:39:34.492Z,101732.98
2023-02-27T21:42:02.559Z,101732.19
2023-02-27T21:44:32.144Z,101736.60
2023-02-27T21:47:10.413Z,101734.04
2023-02-27T21:49:39.465Z,101735.63
2023-02-27T21:52:07.529Z,101732.29
2023-02-27T21:54:36.151Z,101736.91
2023-02-27T21:57:04.286Z,101741.77
2023-02-27T21:59:32.356Z,101745.69
2023-02-27T22:02:00.500Z,101744.29
2023-02-27T22:04:28.808Z,101748.72
2023-02-27T22:06:57.073Z,101746.52
2023-02-27T22:09:25.050Z,101750.17
2023-02-27T22:11:53.564Z,101752.95
2023-02-27T22:14:21.714Z,101754.81
2023-02-27T22:16:49.976Z,101754.61
2023-02-27T22:19:22.734Z,101757.15
2023-02-27T22:21:52.049Z,101755.18
2023-02-27T22:24:20.671Z,101753.60
2023-02-27T22:26:50.401Z,101756.67
2023-02-27T22:29:19.244Z,101756.90
2023-02-27T22:31:47.287Z,101753.15
2023-02-27T22:34:20.850Z,101754.64
2023-02-27T22:36:52.648Z,101755.02
2023-02-27T22:39:21.499Z,101755.44
2023-02-27T22:41:50.248Z,101756.13
2023-02-27T22:44:18.421Z,101754.30
2023-02-27T22:46:48.998Z,101750.04
2023-02-27T22:49:23.363Z,101752.48
2023-02-27T22:51:52.386Z,101759.41
2023-02-27T22:54:22.429Z,101759.22
2023-02-27T22:56:52.359Z,101760.19
2023-02-27T22:59:21.609Z,101760.67
2023-02-27T23:01:50.717Z,101763.35
2023-02-27T23:04:18.999Z,101764.60
2023-02-27T23:06:47.134Z,101765.95
2023-02-27T23:09:20.853Z,101765.19
2023-02-27T23:11:48.847Z,101763.88
2023-02-27T23:14:17.397Z,101768.71
2023-02-27T23:16:46.077Z,101769.10
2023-02-27T23:19:17.064Z,101770.54
2023-02-27T23:21:45.300Z,101769.06
2023-02-27T23:24:18.603Z,101769.45
2023-02-27T23:26:49.614Z,101770.89
2023-02-27T23:29:18.119Z,101773.86
2023-02-27T23:31:46.389Z,101774.45
2023-02-27T23:34:14.563Z,101778.95
2023-02-27T23:36:42.732Z,101780.45
2023-02-27T23:39:10.800Z,101780.45
2023-02-27T23:41:38.972Z,101779.91
2023-02-27T23:44:06.939Z,101779.91
2023-02-27T23:46:34.911Z,101779.52
2023-02-27T23:49:03.600Z,101780.52
2023-02-27T23:51:33.404Z,101774.53
2023-02-27T23:54:01.826Z,101779.73
2023-02-27T23:56:31.213Z,101778.91
2023-02-27T23:59:02.798Z,101777.36
